createdAt,value
2022-07-30T05:15:51.066Z,17.11
2022-07-30T05:18:45.764Z,17.34
2022-07-30T05:21:40.616Z,17.40
2022-07-30T05:24:36.153Z,17.37
2022-07-30T05:27:33.912Z,17.43
2022-07-30T05:30:41.987Z,17.56
2022-07-30T05:33:42.656Z,17.67
2022-07-30T06:30:48.162Z,18.95
2022-07-30T06:47:12.389Z,20.16
2022-07-30T06:50:07.492Z,20.39
2022-07-30T06:53:07.008Z,20.57
2022-07-30T06:59:57.679Z,21.47
2022-07-30T07:02:55.494Z,21.06
2022-07-30T07:05:51.019Z,20.88
2022-07-30T07:12:33.418Z,20.62
2022-07-30T07:16:26.045Z,20.86
2022-07-30T07:26:52.608Z,21.42
2022-07-30T07:46:35.627Z,21.57
2022-07-30T08:00:13.655Z,21.11
2022-07-30T08:07:03.768Z,21.13
2022-07-30T08:10:14.511Z,21.24
2022-07-30T08:13:48.730Z,21.12
2022-07-30T08:23:01.591Z,21.96
2022-07-30T08:38:53.642Z,26.18
2022-07-30T08:41:48.344Z,30.08
2022-07-30T11:19:55.372Z,38.54
2022-07-30T11:34:43.779Z,38.38
2022-07-30T11:38:26.906Z,38.74
2022-07-30T11:52:24.635Z,40.01
2022-07-30T11:55:33.766Z,39.92
2022-07-30T11:58:49.871Z,39.09
2022-07-30T12:02:20.125Z,39.13
2022-07-30T12:05:53.554Z,40.45
2022-07-30T12:12:43.726Z,37.00
2022-07-30T12:22:52.051Z,35.58
2022-07-30T12:36:14.385Z,34.42
2022-07-30T12:39:13.303Z,34.96
2022-07-30T12:45:50.498Z,35.97
2022-07-30T12:48:54.325Z,35.63
2022-07-30T12:55:15.574Z,33.88
2022-07-30T13:09:32.286Z,35.71
2022-07-30T13:23:31.144Z,33.55
2022-07-30T13:26:32.038Z,32.51
2022-07-30T13:29:27.615Z,32.34
2022-07-30T13:32:24.410Z,32.43
2022-07-30T13:38:40.833Z,32.61
2022-07-30T13:41:41.801Z,32.42
2022-07-30T13:44:36.230Z,32.89
2022-07-30T13:47:36.396Z,31.58
2022-07-30T13:51:08.007Z,31.71
2022-07-30T13:54:10.731Z,30.45
2022-07-30T13:57:15.939Z,30.62
2022-07-30T14:00:11.498Z,30.71
2022-07-30T14:03:32.956Z,31.06
2022-07-30T14:13:43.153Z,30.45
2022-07-30T14:23:37.112Z,29.26
2022-07-30T14:37:00.846Z,28.79
2022-07-30T14:40:01.185Z,28.27
2022-07-30T14:49:39.693Z,27.55
2022-07-30T14:52:52.350Z,27.54
2022-07-30T14:55:50.340Z,27.81
2022-07-30T14:58:48.910Z,27.72
2022-07-30T15:01:52.814Z,26.96
2022-07-30T15:08:45.192Z,26.38
2022-07-30T15:19:09.026Z,25.57
2022-07-30T15:29:02.291Z,25.26
2022-07-30T15:31:59.456Z,25.19
2022-07-30T15:34:56.894Z,25.02
2022-07-30T15:38:12.751Z,24.74
2022-07-30T15:41:32.288Z,24.46
2022-07-30T15:44:34.147Z,24.27
2022-07-30T15:47:36.272Z,24.31
2022-07-30T15:50:29.540Z,24.16
2022-07-30T15:53:42.288Z,24.15
2022-07-30T15:57:16.662Z,23.96
2022-07-30T16:22:09.188Z,22.97
2022-07-30T16:33:02.795Z,22.31
2022-07-30T16:36:01.942Z,22.11
2022-07-30T16:39:06.636Z,22.15
2022-07-30T16:42:34.269Z,21.93
2022-07-30T16:45:42.038Z,21.87
2022-07-30T16:49:03.327Z,21.62
2022-07-30T16:52:18.142Z,21.41
2022-07-30T16:55:17.178Z,21.19
2022-07-30T16:59:08.549Z,21.18
2022-07-30T17:02:10.671Z,20.86
2022-07-30T17:05:24.934Z,20.66
2022-07-30T17:08:52.503Z,20.18
2022-07-30T17:18:42.959Z,19.76
2022-07-30T17:21:39.801Z,19.53
2022-07-30T17:25:01.159Z,19.65
2022-07-30T17:35:14.091Z,19.23
2022-07-30T17:38:21.740Z,19.33
2022-07-30T17:41:25.264Z,19.17
2022-07-30T17:44:22.083Z,19.12
2022-07-30T17:47:54.222Z,19.03
2022-07-30T17:54:14.035Z,19.02
2022-07-30T17:57:14.544Z,18.81
2022-07-30T18:06:56.514Z,18.70
2022-07-30T18:09:55.922Z,18.58
2022-07-30T18:16:13.785Z,18.38
2022-07-30T18:26:38.230Z,18.23
2022-07-30T18:29:50.674Z,18.12
2022-07-30T18:54:48.383Z,18.01
2022-07-30T19:15:14.072Z,17.74
2022-07-30T19:18:11.514Z,17.66
2022-07-30T19:21:14.200Z,17.58
2022-07-30T19:24:13.694Z,17.57
2022-07-30T19:27:14.253Z,17.45
2022-07-30T19:30:21.731Z,17.52
2022-07-30T19:33:27.483Z,17.40
2022-07-30T19:36:34.662Z,17.39
2022-07-30T19:39:39.158Z,17.37
2022-07-30T19:43:06.400Z,17.19
2022-07-30T19:46:13.490Z,17.24
2022-07-30T19:52:38.029Z,17.25
2022-07-30T19:55:36.097Z,17.21
2022-07-30T19:59:01.354Z,17.22
2022-07-30T20:02:16.187Z,17.13
2022-07-30T20:05:12.164Z,17.15
2022-07-30T20:08:14.396Z,17.06
2022-07-30T20:11:35.059Z,17.15
2022-07-30T20:14:31.315Z,16.95
2022-07-30T20:17:36.774Z,16.93
2022-07-30T20:20:33.100Z,17.06
2022-07-30T20:23:37.644Z,17.05
2022-07-30T20:27:35.247Z,16.95
2022-07-30T20:30:18.148Z,16.75
2022-07-30T20:36:54.083Z,16.74
2022-07-30T20:39:56.479Z,16.85
2022-07-30T20:42:55.289Z,16.72
2022-07-30T20:45:52.340Z,16.70
2022-07-30T20:48:47.384Z,16.70
2022-07-30T20:51:54.829Z,16.66
2022-07-30T20:54:59.979Z,16.68
2022-07-30T20:58:00.202Z,16.67
2022-07-30T21:01:57.441Z,16.70
2022-07-30T21:05:08.419Z,16.46
2022-07-30T21:08:08.943Z,16.45
2022-07-30T21:14:21.119Z,16.61
